METAR Data
IDs: Format: Raw Decoded Include TAF

Data at: 1010 UTC 28 Jul 2021

KWVI 280953Z AUTO 23003KT 10SM OVC005 14/13 A3003 RMK AO2 SLP170 T01440133
KWVI 280853Z AUTO 00000KT 10SM OVC006 16/13 A3004 RMK AO2 SLP170 T01560133 55001
KWVI 280753Z AUTO 00000KT 10SM OVC007 14/13 A3004 RMK AO2 SLPNO T01440133 402280139
KWVI 280653Z AUTO 00000KT 10SM OVC006 14/13 A3004 RMK AO2 SLPNO T01440133
KWVI 280553Z AUTO 00000KT 10SM OVC006 15/13 A3004 RMK AO2 SLPNO T01500133 10194 20144 50009
KWVI 280453Z AUTO 00000KT 10SM OVC006 15/13 A3004 RMK AO2 SLP172 T01500133
KWVI 280423Z AUTO 26003KT 10SM OVC006 16/13 A3003 RMK AO2 T01560133
KWVI 280353Z AUTO 25004KT 10SM OVC005 16/13 A3003 RMK AO2 SLP168 T01560133
KWVI 280253Z AUTO 27005KT 10SM OVC006 16/13 A3002 RMK AO2 SLP164 T01560133 55001
KWVI 280153Z AUTO 28006KT 10SM OVC007 16/13 A3001 RMK AO2 SLP163 T01610133
KWVI 280140Z AUTO 26006KT 10SM BKN007 16/13 A3001 RMK AO2 T01610133
KWVI 280053Z AUTO 24008KT 10SM FEW008 19/13 A3002 RMK AO2 SLP165 T01890133
KWVI 280045Z AUTO 25006KT 10SM FEW008 18/13 A3002 RMK AO2 T01830133
KWVI 272353Z AUTO 28008KT 10SM CLR 19/14 A3002 RMK AO2 SLP165 T01890139
KWVI 272345Z AUTO 24007KT 10SM FEW006 19/13 A3002 RMK AO2 T01890133
KWVI 272253Z AUTO 24009KT 10SM CLR 19/13 A3003 RMK AO2 SLP167 T01940133
KWVI 272153Z AUTO 27008KT 10SM CLR 21/14 A3002 RMK AO2 SLP165 T02060139
KWVI 272053Z AUTO 26007KT 10SM CLR 22/14 A3002 RMK AO2 SLP165 T02170139 55002 $
KWVI 271953Z AUTO 25009KT 220V290 CLR A3001 RMK AO2 SLPNO $
KWVI 271853Z AUTO 24008KT 210V280 10SM CLR A3001 RMK AO2 SLPNO $
KWVI 271753Z AUTO 23007KT 10SM CLR A3002 RMK AO2 SLPNO 10228 20144 51008 $
KWVI 271653Z AUTO 22006KT 10SM CLR 22/13 A3001 RMK AO2 SLP163 T02170133
KWVI 271553Z AUTO 00000KT 10SM CLR 18/14 A3002 RMK AO2 SLP164 T01830139
KWVI 271453Z AUTO 00000KT 10SM CLR 16/14 A3000 RMK AO2 SLP159 T01610139 53008
KWVI 271353Z AUTO 00000KT 10SM CLR 16/13 A2999 RMK AO2 SLP154 T01560133
KWVI 271253Z AUTO 00000KT 10SM FEW090 15/13 A2998 RMK AO2 SLP151 T01500133
KWVI 271153Z AUTO 00000KT 10SM CLR 14/13 A2998 RMK AO2 SLP151 T01440133 10144 20133 53008
KWVI 271053Z AUTO 21003KT 10SM CLR 14/13 A2996 RMK AO2 SLP144 T01390133
No TAF found for KWVI

KSNS 280953Z AUTO 10SM OVC006 14/12 A3003 RMK AO2 SLP178 T01440122 $
KSNS 280919Z AUTO 10SM OVC009 15/12 A3003 RMK AO2 T01500122 $
KSNS 280905Z AUTO 10SM BKN010 15/12 A3003 RMK AO2 T01500122 $
KSNS 280853Z AUTO 10SM BKN009 15/12 A3003 RMK AO2 SLP179 T01500122 56000 $
KSNS 280850Z AUTO 10SM SCT009 15/12 A3003 RMK AO2 $
KSNS 280753Z AUTO 10SM CLR 15/12 A3003 RMK AO2 SLP178 T01500122 402390150 $
KSNS 280653Z AUTO 10SM SCT008 15/12 A3004 RMK AO2 SLP180 T01500122 $
KSNS 280553Z AUTO 10SM OVC007 16/13 A3004 RMK AO2 SLP180 T01560128 10189 20156 53007 $
KSNS 280453Z AUTO 32007KT 10SM OVC008 16/13 A3003 RMK AO2 SLP178 T01560128 $
KSNS 280407Z AUTO 34008KT 10SM BKN008 16/13 A3002 RMK AO2 T01610128 $
KSNS 280353Z AUTO 32010KT 10SM FEW009 16/13 A3002 RMK AO2 SLP173 T01560128 $
KSNS 280349Z AUTO 32009KT 10SM FEW009 16/13 A3002 RMK AO2 $
KSNS 280253Z AUTO 32010KT 10SM CLR 17/13 A3001 RMK AO2 SLP170 T01670128 53001 $
KSNS 280153Z 32012KT 10SM CLR 17/13 A3000 RMK AO2 SLP168 T01720128 $
KSNS 280053Z 32013KT 10SM FEW011 18/13 A3000 RMK AO2 SLP168 T01830133 $
KSNS 272353Z 30016KT 10SM CLR 19/13 A3000 RMK AO2 SLP169 T01940133 10239 20194 52003 $
KSNS 272253Z 34016KT 10SM CLR 21/13 A3000 RMK AO2 SLP168 T02060133 $
KSNS 272153Z 34015KT 10SM CLR 22/14 A3000 RMK AO2 SLP167 T02170139 $
KSNS 272053Z 31013KT 10SM CLR 22/14 A3000 RMK AO2 SLP166 T02170139 55004
KSNS 271953Z 32014KT 10SM CLR 22/13 A2999 RMK AO2 SLP164 T02170133
KSNS 271853Z 32012KT 10SM CLR 23/14 A3000 RMK AO2 SLP167 T02280139
KSNS 271753Z 31010KT 10SM CLR 22/13 A3001 RMK AO2 SLP170 T02220133 10222 20156 50003 $
KSNS 271653Z AUTO 32006KT 10SM CLR 22/13 A3001 RMK AO2 SLP170 T02170133 $
KSNS 271553Z AUTO VRB03KT 10SM CLR 21/13 A3000 RMK AO2 SLP169 T02060133 $
KSNS 271453Z 00000KT 10SM CLR 18/13 A3000 RMK AO2 SLP167 T01830133 53009
KSNS 271353Z 00000KT 9SM CLR 17/13 A2998 RMK AO2 SLP160 T01670133 $
KSNS 271253Z 00000KT 10SM CLR 16/13 A2997 RMK AO2 SLP158 T01610128 $
KSNS 271153Z AUTO 35004KT 10SM CLR 16/13 A2997 RMK AO2 SLP157 T01560128 10161 20156 53010 $
KSNS 271053Z AUTO 32004KT 10SM FEW110 16/13 A2996 RMK AO2 SLP153 T01610128 $

KSNS 280925Z 2809/2906 VRB04KT P6SM OVC007
  FM281500 VRB03KT P6SM OVC007
  FM281800 33005KT P6SM FEW010
  FM282100 29011KT P6SM SKC
  FM290400 31007KT P6SM BKN008


KMRY 280954Z AUTO 33003KT 5SM BR OVC001 15/13 A3004 RMK AO2 SLP182 T01500128
KMRY 280854Z AUTO 00000KT 7SM OVC003 16/13 A3005 RMK AO2 SLP185 T01560133 55000
KMRY 280827Z AUTO 00000KT 9SM OVC004 16/13 A3004 RMK AO2 T01560133
KMRY 280754Z AUTO 34003KT 10SM OVC005 16/13 A3004 RMK AO2 SLP183 T01560128 402670156
KMRY 280654Z AUTO 00000KT 10SM OVC005 16/13 A3004 RMK AO2 SLP184 T01610128
KMRY 280554Z AUTO 04003KT 10SM OVC007 16/13 A3005 RMK AO2 SLP185 T01610128 10200 20161 51009
KMRY 280454Z AUTO 35004KT 10SM OVC008 17/13 A3005 RMK AO2 SLP185 T01670128
KMRY 280354Z 24004KT 10SM OVC008 17/13 A3003 RMK AO2 SLP179 T01670133
KMRY 280333Z 27005KT 10SM BKN008 17/13 A3002 RMK AO2 T01670133
KMRY 280254Z 25006KT 10SM SCT009 17/13 A3002 RMK AO2 SLP176 T01720133 55000
KMRY 280154Z 26006KT 10SM FEW005 19/13 A3002 RMK AO2 SLP174 T01890133
KMRY 280054Z 26011KT 10SM FEW005 19/13 A3002 RMK AO2 SLP175 T01940133
KMRY 272354Z 26008KT 10SM FEW005 20/14 A3002 RMK AO2 SLP176 T02000139 10267 20200 53005
KMRY 272305Z 25012KT 10SM FEW005 22/13 A3002 RMK AO2 T02170133
KMRY 272254Z 26013KT 10SM CLR 22/13 A3001 RMK AO2 SLP174 T02220133
KMRY 272154Z 30008KT 10SM CLR 25/12 A3001 RMK AO2 SLP171 T02500117
KMRY 272054Z 26007KT 10SM CLR 26/11 A3000 RMK AO2 SLP170 T02610111 57005
KMRY 271954Z 25012KT 10SM CLR 23/13 A3001 RMK AO2 SLP171 T02330128
KMRY 271854Z 01006KT 10SM CLR 23/14 A3002 RMK AO2 SLP174 T02330139
KMRY 271754Z 35005KT 10SM CLR 22/14 A3002 RMK AO2 SLP175 T02220139 10228 20156 50004
KMRY 271654Z 00000KT 10SM CLR 21/14 A3002 RMK AO2 SLP176 T02060139
KMRY 271554Z VRB04KT 10SM FEW007 19/13 A3002 RMK AO2 SLP175 T01890133
KMRY 271454Z 00000KT 10SM CLR 17/13 A3001 RMK AO2 SLP171 T01720133 53010
KMRY 271354Z 00000KT 10SM CLR 16/13 A2999 RMK AO2 SLP167 T01610133
KMRY 271254Z 00000KT 10SM CLR 16/13 A2998 RMK AO2 SLP162 T01610133
KMRY 271154Z AUTO 00000KT 10SM CLR 16/13 A2998 RMK AO2 SLP161 T01560133 10167 20156 53007
KMRY 271054Z AUTO 35003KT 10SM FEW004 16/13 A2997 RMK AO2 SLP159 T01610133
KMRY 271041Z AUTO 00000KT 10SM SCT004 BKN110 16/13 A2997 RMK AO2 T01610133

KMRY 280529Z 2806/2906 VRB03KT 6SM BR OVC007
  FM280800 00000KT 5SM BR OVC004
  FM281700 VRB03KT P6SM OVC007
  FM281900 31008KT P6SM SCT009
  FM282100 30011KT P6SM SKC
  FM290300 26005KT P6SM BKN008


KSJC 280953Z AUTO 32006KT 10SM CLR 17/14 A3001 RMK AO2 SLP163 T01720144
KSJC 280853Z AUTO 32004KT 10SM CLR 17/14 A3002 RMK AO2 SLP163 T01720144 53000
KSJC 280753Z AUTO 34004KT 10SM CLR 18/13 A3002 RMK AO2 SLP163 T01780128 402890167
KSJC 280653Z 00000KT 10SM CLR 19/13 A3001 RMK AO2 SLP163 LAST T01940128
KSJC 280553Z 28004KT 10SM CLR 19/12 A3002 RMK AO2 SLP163 T01940122 10278 20194 51019
KSJC 280453Z 29005KT 10SM FEW100 20/12 A3001 RMK AO2 SLP160 T02000117
KSJC 280353Z 32007KT 10SM FEW003 FEW050 21/11 A2998 RMK AO2 SLP151 FU FEW003 T02110111
KSJC 280253Z 33012KT 10SM FEW003 FEW050 23/11 A2996 RMK AO2 SLP144 FU FEW003 T02330106 53007
KSJC 280153Z 32012KT 10SM FEW003 FEW055 FEW090 26/11 A2994 RMK AO2 SLP138 FU FEW003 T02560106
KSJC 280053Z 33011KT 10SM FEW003 FEW055 FEW100 27/11 A2993 RMK AO2 SLP135 FU FEW003 T02720106
KSJC 272353Z 33014KT 10SM FEW004 FEW055 FEW120 28/11 A2994 RMK AO2 SLP137 FU FEW004 T02780111 10289 20239 57009
KSJC 272253Z 32014KT 10SM FEW005 FEW060 FEW130 28/11 A2995 RMK AO2 SLP140 FU FEW005 T02830111
KSJC 272153Z 31011KT 10SM FEW060 SCT140 SCT250 28/12 A2996 RMK AO2 SLP144 T02780122
KSJC 272053Z 32011KT 10SM FEW060 SCT150 SCT250 29/11 A2997 RMK AO2 SLP146 T02890106 56010
KSJC 271953Z 33009KT 10SM FEW060 SCT100 SCT150 28/12 A2997 RMK AO2 SLP148 T02830117
KSJC 271853Z 32007KT 10SM FEW060 FEW090 FEW150 26/14 A2999 RMK AO2 SLP154 T02610139
KSJC 271753Z 00000KT 10SM FEW060 FEW090 FEW150 24/14 A3000 RMK AO2 SLP156 T02390139 10239 20172 50006
KSJC 271653Z 35004KT 10SM FEW060 FEW090 FEW150 22/14 A3000 RMK AO2 SLP157 T02220144
KSJC 271553Z 33004KT 10SM FEW060 SCT090 BKN150 20/14 A2999 RMK AO2 SLP156 T02000144
KSJC 271453Z 00000KT 10SM FEW060 BKN080 BKN150 19/14 A2998 RMK AO2 SLP150 T01890139 53009
KSJC 271353Z 00000KT 10SM BKN100 OVC150 18/13 A2997 RMK AO2 SLP146 T01830133
KSJC 271253Z 00000KT 10SM BKN100 OVC150 18/13 A2996 RMK AO2 SLP143 T01780133
KSJC 271153Z AUTO 00000KT 10SM SCT120 17/13 A2995 RMK AO2 SLP141 T01720133 10178 20167 50005
KSJC 271053Z AUTO 34003KT 10SM CLR 17/13 A2995 RMK AO2 SLP142 T01720133

KSJC 280529Z 2806/2906 32006KT P6SM SKC
  FM280800 VRB04KT P6SM SKC
  FM282100 32010KT P6SM SKC
  FM290500 32005KT P6SM SKC


KSFO 280956Z 30010KT 10SM FEW002 14/12 A3002 RMK AO2 SLP164 T01390122
KSFO 280856Z 30012KT 10SM FEW002 14/13 A3002 RMK AO2 SLP165 T01440128 51002
KSFO 280756Z 29008KT 10SM FEW002 15/13 A3002 RMK AO2 SLP165 T01500128 402390144
KSFO 280656Z 30007KT 10SM FEW003 15/13 A3002 RMK AO2 SLP165 T01500128
KSFO 280556Z 31007KT 10SM FEW003 15/13 A3001 RMK AO2 SLP163 T01500128 10222 20144 51018
KSFO 280456Z 31012KT 10SM FEW005 15/13 A3000 RMK A02 SLP158 T01500128
KSFO 280356Z 31015KT 10SM FEW005 16/13 A2998 RMK A02 SLP151 T01560128
KSFO 280256Z 30015KT 10SM FEW009 FEW180 19/12 A2996 RMK A02 SLP145 T01940122 53003
KSFO 280156Z 29018KT 10SM FEW009 FEW180 22/11 A2995 RMK A02 SLP140 T02220106
KSFO 280056Z 29020KT 10SM FEW009 FEW180 21/12 A2994 RMK A02 SLP139 T02110122
KSFO 272356Z 30017KT 10SM FEW008 SCT180 21/13 A2995 RMK A02 SLP142 T02110128 10239 20200 58010
KSFO 272256Z 30017KT 10SM FEW008 SCT180 22/13 A2996 RMK A02 SLP145 T02220133
KSFO 272156Z 31021KT 10SM FEW008 SCT150 21/13 A2997 RMK A02 SLP149 T02060133
KSFO 272056Z 31015KT 10SM SCT140 23/13 A2998 RMK A02 SLP152 T02330133
KSFO 271956Z 31012KT 10SM SCT140 24/13 A2999 RMK A02 SLP155 T02390133
KSFO 271856Z 02007KT 10SM FEW140 SCT200 21/15 A3000 RMK A02 SLP158 T02110150
KSFO 271756Z 03005KT 10SM SCT140 SCT200 20/14 A3000 RMK A02 SLP159 T02000144 10200 20156 51006
KSFO 271656Z 36005KT 10SM BKN140 BKN200 18/13 A3000 RMK A02 SLP160 T01560128
KSFO 271556Z 31005KT FEW004 SCT120 BKN200 16/13 A3001 RMK A02 SLP153 T01560122 53012
KSFO 271456Z 32007KT 10SM FEW004 BKN120 BKN200 16/12 A2998 RMK A02 SLP153 T01560122 53012
KSFO 271356Z 30007KT 10SMSM FEW003 SCT100 BKN200 16/13 A2997 RMK A02 SLP148 T01610128
KSFO 271256Z 00000KT 10SM FEW003 FEW100 OVC200 16/13 A2995 RMK AO2 SLP142 T01610133
KSFO 271156Z 00000KT 10SM FEW003 OVC140 15/12 A2995 RMK AO2 SLP141 T01500122 10167 20144 51007
KSFO 271056Z 29005KT 10SM FEW003 OVC140 14/12 A2995 RMK AO2 SLP140 T01440122

KSFO 280901Z 2809/2912 31010KT P6SM FEW006
  FM281000 30007KT P6SM FEW005 SCT012
  FM281600 28007KT P6SM FEW012
  FM282100 30017KT P6SM SKC
  FM290500 30008KT P6SM FEW005


No METAR found for KHAF
No TAF found for KHAF